Sweeney Granite Mountains, California Weather observations

Data are for 10 minute period ending at time listed.
 Day   Time   Solar   Ave.   Ave.  Ave.  Vector  Max.   Baro.   Total    
  of    of     Rad.   Air    Rel.  Wind   Wind   Wind  Press.  Precip.   
Year   Day            Temp.  Hum.  Speed  Dir.   Gust                    
2017   (PST)  Kw/m2    F      %     mph   deg.    mph    mb.     in.     
-------------------------------------------------------------------------
 144   18:10   0.03   81.5     9   18.8   277    28.8   861.5    0.00 
 144   18:20   0.02   81.1     8   18.8   283    27.7   861.5    0.00 
 144   18:30   0.01   80.7     8   17.6   281    27.4   861.5    0.00 
 144   18:40   0.01   80.2     8   20.2   281    33.8   861.4    0.00 
 144   18:50   0.00   79.8     8   20.8   280    31.3   861.4    0.00 
 144   19:00   0.00   79.4     8   17.4   284    24.3   861.5    0.00 
 144   19:10   0.00   79.0     8   18.5   287    28.4   861.4    0.00 
 144   19:20   0.00   79.1     8   19.3   283    29.0   861.4    0.00 
 144   19:30   0.00   78.7     8   18.5   286    29.1   861.4    0.00 
 144   19:40   0.00   78.4     8   18.0   294    28.9   861.4    0.00 
 144   19:50   0.00   78.2     9   19.7   293    30.0   861.5    0.00 
 144   20:00   0.00   78.1     9   19.0   290    27.8   861.5    0.00 
 144   20:10   0.00   77.5    10   17.4   296    27.0   861.5    0.00 
 144   20:20   0.00   77.3    10   19.5   297    30.3   861.6    0.00 
 144   20:30   0.00   76.9    11   21.8   300    31.0   861.6    0.00 
 144   20:40   0.00   76.6    11   21.7   299    30.9   861.7    0.00 
 144   20:50   0.00   76.1    12   20.3   297    33.0   861.8    0.00 
 144   21:00   0.00   75.8    13   20.8   301    29.5   861.8    0.00 
 144   21:10   0.00   75.5    14   20.8   304    30.8   861.7    0.00 
 144   21:20   0.00   74.9    15   22.3   298    31.8   861.7    0.00 
 144   21:30   0.00   74.4    19   25.6   300    36.7   861.6    0.00 
 144   21:40   0.00   74.1    21   26.9   303    36.2   861.5    0.00 
 144   21:50   0.00   73.7    21   26.4   300    35.1   861.5    0.00 
 144   22:00   0.00   73.5    22   25.7   302    35.8   861.5    0.00 
 144   22:10   0.00   73.3    22   23.1   308    34.4   861.5    0.00 
 144   22:20   0.00   72.9    22   22.5   305    35.7   861.5    0.00 
 144   22:30   0.00   72.3    22   25.1   303    34.9   861.3    0.00 
 144   22:40   0.00   71.9    22   22.7   303    30.2   861.3    0.00 
 144   22:50   0.00   71.4    22   25.0   302    33.4   861.3    0.00 
 144   23:00   0.00   71.8    21   26.9   308    35.4   861.2    0.00 
 144   23:10   0.00   71.8    22   23.5   307    32.4   861.3    0.00 
 144   23:20   0.00   72.0    22   21.4   307    30.8   861.3    0.00 
 144   23:30   0.00   72.1    23   21.0   304    29.3   861.2    0.00 
 144   23:40   0.00   72.0    23   21.0   304    29.5   861.1    0.00 
 144   23:50   0.00   72.0    23   19.1   306    30.3   861.2    0.00 
 145    0:00   0.00   71.8    23   19.5   304    30.5   861.1    0.00 
 145    0:10   0.00   71.2    24   18.8   310    30.0   861.0    0.00 
 145    0:20   0.00   70.7    24   18.8   304    32.4   861.0    0.00 
 145    0:30   0.00   70.6    24   21.2   307    29.5   860.8    0.00 
 145    0:40   0.00   70.6    24   20.0   300    28.6   860.8    0.00 
 145    0:50   0.00   70.7    24   22.7   300    29.7   860.8    0.00 
 145    1:00   0.00   70.5    24   19.8   305    28.7   860.8    0.00 
 145    1:10   0.00   70.0    23   20.0   296    27.8   860.8    0.00 
 145    1:20   0.00   69.6    22   22.2   298    36.0   860.8    0.00 
 145    1:30   0.00   69.4    21   22.7   296    31.8   860.8    0.00 
 145    1:40   0.00   69.2    21   23.4   297    38.7   860.7    0.00 
 145    1:50   0.00   70.1    20   25.9   291    36.7   860.6    0.00 
 145    2:00   0.00   70.9    19   20.8   285    34.1   860.5    0.00 
 145    2:10   0.00   71.2    18   22.4   290    34.4   860.4    0.00 
 145    2:20   0.00   71.3    17   23.4   289    37.0   860.3    0.00 
 145    2:30   0.00   70.9    16   19.0   290    27.6   860.4    0.00 
 145    2:40   0.00   70.5    15   22.0   296    31.0   860.3    0.00 
 145    2:50   0.00   70.5    13   20.6   296    31.4   860.1    0.00 
 145    3:00   0.00   70.5    12   21.0   293    30.0   860.1    0.00 
 145    3:10   0.00   70.6    12   20.6   297    38.2   860.1    0.00 
 145    3:20   0.00   70.4    12   24.4   290    40.1   860.0    0.00 
 145    3:30   0.00   70.3    12   21.4   292    34.6   860.0    0.00 
 145    3:40   0.00   70.2    12   23.1   294    37.6   859.9    0.00 
 145    3:50   0.00   70.2    12   22.7   295    31.0   859.9    0.00 
 145    4:00   0.00   70.1    12   20.0   300    36.4   860.0    0.00 
 145    4:10   0.00   69.8    12   22.2   299    31.2   860.0    0.00 
 145    4:20   0.00   70.5    12   22.3   300    33.3   860.1    0.00 
 145    4:30   0.00   70.2    12   19.2   301    27.4   860.2    0.00 
 145    4:40   0.00   70.2    12   21.0   302    33.8   860.2    0.00 
 145    4:50   0.00   70.1    12   22.4   306    31.5   860.2    0.00 
 145    5:00   0.00   70.1    12   21.8   302    34.7   860.2    0.00 
 145    5:10   0.01   70.1    12   22.9   304    30.5   860.2    0.00 
 145    5:20   0.01   70.4    12   19.5   297    29.7   860.4    0.00 
 145    5:30   0.01   70.8    12   21.2   295    29.1   860.5    0.00 
 145    5:40   0.09   71.6    12   20.1   292    28.8   860.6    0.00 
 145    5:50   0.17   73.0    12   19.9   305    27.8   860.6    0.00 
 145    6:00   0.20   73.5    12   19.1   306    31.8   860.7    0.00 
 145    6:10   0.24   73.6    11   19.5   304    28.1   860.7    0.00 
 145    6:20   0.27   74.3    11   18.6   300    28.3   860.8    0.00 
 145    6:30   0.31   74.0    11   17.9   305    28.1   861.0    0.00 
 145    6:40   0.34   73.4    11   20.5   307    30.1   861.0    0.00 
 145    6:50   0.38   73.8    11   21.2   309    31.9   861.1    0.00 
 145    7:00   0.42   74.1    11   20.4   304    29.1   861.1    0.00 
 145    7:10   0.45   74.7    11   18.1   305    27.8   861.2    0.00 
 145    7:20   0.49   74.9    11   16.1   304    24.8   861.3    0.00 
 145    7:30   0.52   75.4    11   14.8   307    22.9   861.4    0.00 
 145    7:40   0.56   75.7    10   15.7   307    22.4   861.5    0.00 
 145    7:50   0.59   76.7     9   14.8   306    24.5   861.5    0.00 
 145    8:00   0.62   77.0     9   14.6   303    25.3   861.5    0.00 
 145    8:10   0.66   77.8     9   13.2   299    19.4   861.6    0.00 
 145    8:20   0.69   78.1     9   14.2   299    22.6   861.7    0.00 
 145    8:30   0.72   78.6     9    6.5   239    18.3   861.7    0.00 
 145    8:40   0.75   79.4     9    4.8   111    10.7   861.8    0.00 
 145    8:50   0.78   79.6     9    5.3    22    17.2   861.8    0.00 
 145    9:00   0.81   80.2     9    7.7   318    16.3   861.8    0.00 
 145    9:10   0.83   80.2     9    6.3   314    16.1   861.8    0.00 
 145    9:20   0.85   81.1     9    6.5   325    12.6   861.8    0.00 
 145    9:30   0.88   79.8     9    8.6   320    15.1   861.9    0.00 
 145    9:40   0.90   79.9     9    5.9   314    11.6   861.9    0.00 
 145    9:50   0.92   79.8     9    8.8   318    16.5   861.9    0.00 
 145   10:00   0.94   80.6     8    7.4   298    17.3   861.9    0.00 
 145   10:10   0.95   82.4     8    4.6   250    10.7   861.9    0.00 
 145   10:20   0.97   81.6     7    6.6   255    20.4   861.9    0.00 
 145   10:30   0.98   80.5     7    5.6   263    14.0   862.0    0.00 
 145   10:40   0.99   80.5     7    8.6   228    17.2   862.0    0.00 
 145   10:50   1.00   80.9     7    8.2   239    17.0   862.1    0.00 
 145   11:00   1.01   80.8     7    8.7   275    16.6   862.2    0.00 
 145   11:10   1.01   80.7     7    9.1   271    17.8   862.3    0.00 
 145   11:20   1.03   82.4     7    9.1   278    16.4   862.3    0.00 
 145   11:30   1.03   81.1     7    8.6   277    15.7   862.2    0.00 
 145   11:40   1.03   82.7     7    8.3   270    17.2   862.1    0.00 
 145   11:50   1.03   82.8     7    5.6   241    15.9   862.0    0.00 
 145   12:00   1.03   83.1     7   10.8   283    21.4   862.0    0.00 
 145   12:10   1.03   82.8     7   10.2   254    23.2   862.0    0.00 
 145   12:20   1.00   82.6     7    7.6   221    16.2   862.0    0.00 
 145   12:30   1.01   82.0     7    4.8   191    12.3   862.0    0.00 
 145   12:40   1.01   83.6     7    5.3   200    12.7   861.9    0.00 
 145   12:50   1.00   83.5     7    7.5   260    17.6   861.8    0.00 
 145   13:00   0.99   82.8     7    7.5   241    17.9   861.8    0.00 
 145   13:10   0.98   83.5     7    6.5   170    13.0   861.7    0.00 
 145   13:20   0.96   82.3     7   10.0   208    21.8   861.7    0.00 
 145   13:30   0.95   83.4     7    6.3   227    12.9   861.6    0.00 
 145   13:40   0.94   83.2     7    6.4   199    19.0   861.5    0.00 
 145   13:50   0.92   84.1     7    4.6   164    15.9   861.4    0.00 
 145   14:00   0.90   84.3     7    5.7   208    13.0   861.3    0.00 
 145   14:10   0.87   83.8     7    6.1   207    16.7   861.2    0.00 
 145   14:20   0.85   84.1     6    4.6   189    14.7   861.1    0.00 
 145   14:30   0.82   84.5     6    5.2   233    14.0   861.1    0.00 
 145   14:40   0.80   85.8     6    3.5   192    11.2   861.0    0.00 
 145   14:50   0.77   84.4     6    6.6   209    14.2   860.8    0.00 
 145   15:00   0.74   85.3     6    5.3   255    17.8   860.9    0.00 
 145   15:10   0.71   85.6     6    4.7   195    11.0   860.8    0.00 
 145   15:20   0.68   84.4     6    4.6   187    11.5   860.7    0.00 
 145   15:30   0.65   84.6     6    4.7   130    11.3   860.6    0.00 
 145   15:40   0.62   84.3     6    4.1   358    10.1   860.5    0.00 
 145   15:50   0.58   86.1     6    2.8   206     8.8   860.3    0.00 
 145   16:00   0.55   84.6     6    6.0   210    16.6   860.2    0.00 
 145   16:10   0.52   85.2     6    4.7   217    11.5   860.2    0.00 
 145   16:20   0.48   85.1     6    4.6   247    16.5   860.2    0.00 
 145   16:30   0.45   85.2     6    5.4   199    11.6   860.1    0.00 
 145   16:40   0.41   84.3     6    7.6   227    17.5   860.1    0.00 
 145   16:50   0.37   84.8     6    5.6   282    12.1   860.1    0.00 
 145   17:00   0.33   84.7     6    5.0   249    15.3   860.1    0.00 
 145   17:10   0.30   83.2     6    9.1   227    18.6   860.1    0.00 
 145   17:20   0.26   82.6     6    6.8   252    18.0   860.2    0.00 
 145   17:30   0.22   81.7     7    9.8   241    19.1   860.2    0.00 
 145   17:40   0.18   81.6     9    5.2   252    10.4   860.3    0.00 
 145   17:50   0.06   80.0    10    5.6   258    12.6   860.4    0.00 
 145   18:00   0.01   77.6    11    8.2   284    11.9   860.4    0.00 

Return to Sweeney Granite Mountains graphs page.


Western Regional Climate Center,wrcc@dri.edu